Time;durP1;ratioP1;P1;durP2;ratioP2;P2;SDS_P1;SDS_P2;PMS_P1;PMS_P2;Temp;Humidity;BMP_temperature;BMP_pressure;BME280_temperature;BME280_humidity;BME280_pressure;Samples;Min_cycle;Max_cycle;Signal;HPM_P1;HPM_P2
2023/04/04 00:00:48;;;;;;;16.70;12.70;;;;;;;-0.81;72.64;98472.89;109664;1289;22887;-86
2023/04/04 00:03:16;;;;;;;16.80;13.60;;;;;;;-0.80;72.92;98472.65;109671;1289;22257;-84
2023/04/04 00:05:45;;;;;;;19.70;14.30;;;;;;;-0.83;72.52;98472.77;109652;1289;22286;-84
2023/04/04 00:08:12;;;;;;;16.40;13.50;;;;;;;-0.82;72.63;98470.21;109659;1289;22372;-83
2023/04/04 00:10:40;;;;;;;18.40;12.70;;;;;;;-0.84;72.87;98468.30;109658;1289;22789;-85
2023/04/04 00:13:09;;;;;;;16.60;12.30;;;;;;;-0.85;73.28;98469.04;109636;1289;22193;-84
2023/04/04 00:15:37;;;;;;;15.10;11.40;;;;;;;-0.85;73.14;98465.02;109638;1289;22200;-84
2023/04/04 00:18:05;;;;;;;14.30;11.90;;;;;;;-0.85;73.39;98464.27;109524;1289;174757;-85
2023/04/04 00:20:33;;;;;;;14.80;11.60;;;;;;;-0.91;73.36;98461.05;109637;1284;22964;-84
2023/04/04 00:23:01;;;;;;;13.30;11.90;;;;;;;-0.94;73.68;98460.73;109662;1289;22823;-85
2023/04/04 00:25:29;;;;;;;13.20;10.60;;;;;;;-0.99;73.50;98462.51;109671;1289;22271;-85
2023/04/04 00:27:59;;;;;;;14.60;13.00;;;;;;;-0.99;73.29;98457.91;109636;1289;22324;-85
2023/04/04 00:30:28;;;;;;;14.20;11.60;;;;;;;-0.97;73.52;98457.89;109629;1289;23188;-87
2023/04/04 00:32:57;;;;;;;12.50;11.10;;;;;;;-1.00;73.44;98458.36;109642;1289;22196;-87
2023/04/04 00:35:25;;;;;;;14.80;12.60;;;;;;;-1.02;74.37;98453.98;109686;1289;22320;-86
2023/04/04 00:37:53;;;;;;;13.70;12.30;;;;;;;-1.06;73.97;98458.73;109654;1289;22287;-86
2023/04/04 00:40:21;;;;;;;13.10;11.00;;;;;;;-1.08;74.36;98459.34;109646;1289;22239;-85
2023/04/04 00:42:49;;;;;;;12.60;10.90;;;;;;;-1.10;74.30;98462.23;109645;1289;22309;-87
2023/04/04 00:45:17;;;;;;;13.10;11.30;;;;;;;-1.08;74.42;98464.24;109657;1289;22258;-88
2023/04/04 00:47:46;;;;;;;12.90;11.50;;;;;;;-1.10;73.81;98466.58;109646;1289;23108;-87
2023/04/04 00:50:15;;;;;;;17.00;12.40;;;;;;;-1.09;74.27;98464.87;109731;1289;22245;-86
2023/04/04 00:52:43;;;;;;;12.00;10.90;;;;;;;-1.13;74.09;98464.23;109717;1287;22360;-88
2023/04/04 00:55:11;;;;;;;13.90;12.50;;;;;;;-1.15;73.81;98466.72;109690;1289;22621;-88
2023/04/04 00:57:39;;;;;;;13.80;10.90;;;;;;;-1.17;74.05;98463.71;109675;1289;22208;-88
2023/04/04 01:00:09;;;;;;;14.10;10.80;;;;;;;-1.19;74.54;98463.11;109646;1289;22247;-89
2023/04/04 01:02:37;;;;;;;13.50;10.20;;;;;;;-1.22;74.91;98465.33;109645;1289;22197;-88
2023/04/04 01:05:06;;;;;;;12.40;11.00;;;;;;;-1.26;75.11;98467.90;109562;1289;22295;-87
2023/04/04 01:07:35;;;;;;;14.60;11.70;;;;;;;-1.33;75.08;98468.86;109580;1289;23076;-87
2023/04/04 01:10:05;;;;;;;14.10;11.50;;;;;;;-1.38;75.32;98472.48;109649;1289;22192;-86
2023/04/04 01:12:34;;;;;;;12.60;10.70;;;;;;;-1.43;75.31;98470.05;109580;1289;23155;-88
2023/04/04 01:15:02;;;;;;;11.80;10.10;;;;;;;-1.42;75.03;98472.77;109669;1289;22207;-86
2023/04/04 01:17:30;;;;;;;14.50;13.10;;;;;;;-1.41;75.37;98473.67;109636;1286;22193;-87
2023/04/04 01:20:10;;;;;;;14.20;12.50;;;;;;;-1.46;75.80;98474.45;109663;1289;22210;-86
2023/04/04 01:22:45;;;;;;;15.20;12.40;;;;;;;-1.49;75.30;98470.77;109655;1289;22813;-88
2023/04/04 01:25:13;;;;;;;13.80;12.30;;;;;;;-1.55;75.28;98468.86;109658;1289;22104;-86
2023/04/04 01:27:45;;;;;;;12.40;10.70;;;;;;;-1.62;75.82;98459.98;109657;1289;22999;-87
2023/04/04 01:30:16;;;;;;;12.50;10.60;;;;;;;-1.61;76.08;98464.69;109651;1289;22246;-87
2023/04/04 01:32:58;;;;;;;12.50;10.90;;;;;;;-1.62;76.04;98474.34;109706;1289;22255;-86
2023/04/04 01:35:52;;;;;;;12.60;10.50;;;;;;;-1.63;76.52;98473.33;109689;1289;22397;-88
2023/04/04 01:38:29;;;;;;;12.70;11.30;;;;;;;-1.70;76.98;98475.60;109789;1289;22142;-88
2023/04/04 01:41:03;;;;;;;13.10;11.70;;;;;;;-1.76;76.85;98475.77;109824;1289;22113;-88
2023/04/04 01:43:33;;;;;;;13.00;11.40;;;;;;;-1.81;77.06;98475.13;109757;1289;22215;-87
2023/04/04 01:46:03;;;;;;;13.90;11.70;;;;;;;-1.81;77.56;98476.58;109575;1289;22303;-88
2023/04/04 01:48:31;;;;;;;15.60;12.10;;;;;;;-1.86;77.92;98476.63;109648;1289;22272;-87
2023/04/04 01:51:03;;;;;;;13.00;11.00;;;;;;;-1.91;77.89;98481.27;109586;1289;22192;-87
2023/04/04 01:53:32;;;;;;;13.10;11.30;;;;;;;-1.95;78.26;98478.99;109624;1289;22763;-84
2023/04/04 01:56:01;;;;;;;14.50;11.00;;;;;;;-1.98;78.31;98478.27;109639;1289;22667;-87
2023/04/04 01:58:32;;;;;;;12.80;11.50;;;;;;;-2.00;78.58;98480.63;109584;1289;22190;-87
2023/04/04 02:01:00;;;;;;;12.90;10.70;;;;;;;-2.01;78.59;98487.56;109579;1289;22261;-87
2023/04/04 02:03:28;;;;;;;12.60;10.70;;;;;;;-2.06;78.84;98483.17;109667;1285;22289;-89
2023/04/04 02:05:56;;;;;;;13.30;11.20;;;;;;;-2.10;79.17;98481.83;109671;1289;22258;-89
2023/04/04 02:08:24;;;;;;;13.30;10.80;;;;;;;-2.11;78.77;98477.74;109576;1289;22958;-88
2023/04/04 02:10:57;;;;;;;12.70;10.90;;;;;;;-2.11;79.26;98477.37;109675;1283;22207;-87
2023/04/04 02:13:26;;;;;;;13.30;11.80;;;;;;;-2.16;79.38;98479.12;109553;1289;22400;-87
2023/04/04 02:15:54;;;;;;;12.40;11.00;;;;;;;-2.20;79.42;98474.89;109547;1289;22198;-88
2023/04/04 02:18:23;;;;;;;12.10;10.80;;;;;;;-2.23;79.82;98474.36;109586;1289;22172;-88
2023/04/04 02:20:56;;;;;;;12.30;11.00;;;;;;;-2.22;79.47;98472.36;109664;1289;22899;-87
2023/04/04 02:23:24;;;;;;;13.60;11.30;;;;;;;-2.21;80.34;98473.27;109679;1289;22269;-86
2023/04/04 02:25:52;;;;;;;13.00;11.70;;;;;;;-2.27;80.36;98476.54;109666;1289;22290;-86
2023/04/04 02:28:21;;;;;;;14.10;11.50;;;;;;;-2.33;80.59;98474.42;109652;1289;22875;-88
2023/04/04 02:30:49;;;;;;;12.40;11.00;;;;;;;-2.38;80.87;98473.66;109634;1289;22945;-87
2023/04/04 02:33:17;;;;;;;12.80;11.30;;;;;;;-2.40;80.87;98481.28;109576;1289;22394;-89
2023/04/04 02:35:46;;;;;;;13.50;12.10;;;;;;;-2.41;80.76;98478.56;109580;1289;22222;-89
2023/04/04 02:38:14;;;;;;;12.90;11.10;;;;;;;-2.46;81.09;98478.05;109646;1289;22191;-87
2023/04/04 02:40:45;;;;;;;11.30;9.90;;;;;;;-2.48;81.52;98477.52;109697;1289;22184;-88
2023/04/04 02:43:13;;;;;;;11.50;10.30;;;;;;;-2.53;81.50;98474.48;109674;1284;22310;-89
2023/04/04 02:45:41;;;;;;;11.70;10.40;;;;;;;-2.54;81.81;98474.77;109672;1289;23047;-86
2023/04/04 02:48:26;;;;;;;12.90;11.60;;;;;;;-2.58;82.02;98474.88;109686;1289;22955;-87
2023/04/04 02:50:57;;;;;;;11.70;10.50;;;;;;;-2.62;82.33;98474.09;109565;1289;22313;-86
2023/04/04 02:53:26;;;;;;;11.70;10.50;;;;;;;-2.63;82.40;98467.39;109564;1289;22215;-87
2023/04/04 02:55:56;;;;;;;13.30;11.50;;;;;;;-2.64;82.57;98467.92;109756;1289;22204;-84
2023/04/04 02:58:24;;;;;;;12.50;10.80;;;;;;;-2.65;82.60;98471.16;109574;1289;22388;-88
2023/04/04 03:00:54;;;;;;;11.60;10.40;;;;;;;-2.69;82.99;98467.10;109716;1289;22087;-87
2023/04/04 03:03:26;;;;;;;12.50;10.70;;;;;;;-2.69;82.88;98469.33;109695;1289;22135;-86
2023/04/04 03:05:54;;;;;;;11.70;10.00;;;;;;;-2.69;83.31;98472.00;109584;1289;22924;-87
2023/04/04 03:08:23;;;;;;;13.00;11.70;;;;;;;-2.69;83.47;98473.80;109676;1289;22257;-85
2023/04/04 03:10:51;;;;;;;11.10;10.00;;;;;;;-2.72;83.23;98472.36;109571;1289;22278;-86
2023/04/04 03:13:19;;;;;;;11.20;10.10;;;;;;;-2.72;83.63;98471.64;109677;1289;22283;-84
2023/04/04 03:15:48;;;;;;;13.80;11.20;;;;;;;-2.72;83.76;98470.61;109675;1289;22242;-85
2023/04/04 03:18:16;;;;;;;12.60;10.30;;;;;;;-2.73;83.94;98466.16;109666;1289;22210;-85
2023/04/04 03:20:45;;;;;;;11.30;10.10;;;;;;;-2.74;83.87;98467.17;109586;1289;22303;-84
2023/04/04 03:23:13;;;;;;;11.70;10.50;;;;;;;-2.74;84.17;98463.80;109664;1289;22633;-84
2023/04/04 03:25:41;;;;;;;11.80;10.30;;;;;;;-2.73;84.15;98468.31;109640;1289;22220;-84
2023/04/04 03:28:10;;;;;;;12.90;11.60;;;;;;;-2.74;84.10;98467.16;109662;1289;23172;-85
2023/04/04 03:30:39;;;;;;;12.80;10.80;;;;;;;-2.75;83.84;98466.96;109550;1289;22247;-85
2023/04/04 03:33:08;;;;;;;12.40;11.00;;;;;;;-2.73;84.07;98470.38;109676;1289;22408;-84
2023/04/04 03:35:38;;;;;;;11.80;10.60;;;;;;;-2.73;83.99;98469.69;109568;1289;22611;-86
2023/04/04 03:38:08;;;;;;;13.20;11.70;;;;;;;-2.70;83.93;98467.70;109673;1289;22189;-85
2023/04/04 03:40:36;;;;;;;13.70;12.20;;;;;;;-2.68;84.33;98465.84;109677;1289;22109;-86
2023/04/04 03:43:10;;;;;;;12.20;10.70;;;;;;;-2.72;84.02;98463.89;109688;1289;22677;-86
2023/04/04 03:45:38;;;;;;;12.00;10.80;;;;;;;-2.72;84.26;98463.56;109565;1289;22194;-86
2023/04/04 03:48:09;;;;;;;11.40;9.90;;;;;;;-2.69;84.31;98459.55;109573;1289;22197;-85
2023/04/04 03:50:37;;;;;;;14.10;12.60;;;;;;;-2.67;84.50;98455.94;109676;1289;22241;-86
2023/04/04 03:53:06;;;;;;;12.80;11.30;;;;;;;-2.73;84.86;98456.30;109576;1289;22156;-85
2023/04/04 03:55:34;;;;;;;13.40;10.80;;;;;;;-2.76;84.72;98454.39;109690;1289;22330;-85
2023/04/04 03:58:01;;;;;;;16.40;12.00;;;;;;;-2.75;84.48;98450.57;109704;1289;22323;-85
2023/04/04 04:00:30;;;;;;;12.40;11.20;;;;;;;-2.71;84.78;98450.66;109572;1289;22303;-85
2023/04/04 04:02:57;;;;;;;12.70;11.40;;;;;;;-2.72;84.84;98446.69;109684;1289;22228;-85
2023/04/04 04:05:26;;;;;;;12.50;11.10;;;;;;;-2.76;84.69;98450.73;109690;1274;22189;-86
2023/04/04 04:07:55;;;;;;;13.30;12.00;;;;;;;-2.76;84.95;98451.91;109685;1289;22120;-85
2023/04/04 04:10:22;;;;;;;13.30;11.50;;;;;;;-2.75;85.18;98450.20;109706;1289;23005;-87
2023/04/04 04:12:50;;;;;;;13.20;11.90;;;;;;;-2.76;84.93;98444.15;109575;1289;22454;-84
2023/04/04 04:15:18;;;;;;;12.90;11.00;;;;;;;-2.78;85.31;98444.55;109706;1289;22777;-83
2023/04/04 04:17:46;;;;;;;11.60;10.40;;;;;;;-2.79;85.22;98442.08;109574;1289;22326;-83
2023/04/04 04:20:15;;;;;;;11.90;10.70;;;;;;;-2.82;85.05;98441.06;109687;1289;22209;-83
2023/04/04 04:22:48;;;;;;;12.20;11.00;;;;;;;-2.76;85.31;98444.02;109564;1274;22258;-83
2023/04/04 04:25:17;;;;;;;12.30;11.10;;;;;;;-2.74;85.26;98443.38;109663;1289;22256;-82
2023/04/04 04:27:55;;;;;;;13.30;11.90;;;;;;;-2.79;85.33;98443.17;109669;1289;22976;-83
2023/04/04 04:30:24;;;;;;;14.30;12.70;;;;;;;-2.80;85.53;98444.83;109566;1289;23072;-85
2023/04/04 04:32:52;;;;;;;16.00;13.90;;;;;;;-2.78;85.59;98442.48;109680;1289;22290;-86
2023/04/04 04:35:23;;;;;;;16.30;14.60;;;;;;;-2.80;85.65;98438.83;109688;1289;22294;-84
2023/04/04 04:37:54;;;;;;;15.40;13.80;;;;;;;-2.82;85.67;98440.29;109567;1289;22327;-85
2023/04/04 04:40:22;;;;;;;13.60;12.20;;;;;;;-2.82;85.88;98439.39;109535;1289;22194;-85
2023/04/04 04:43:02;;;;;;;14.60;12.20;;;;;;;-2.80;85.94;98440.53;109524;1289;22269;-84
2023/04/04 04:45:30;;;;;;;13.80;12.50;;;;;;;-2.81;85.70;98437.96;109654;1289;22335;-85
2023/04/04 04:48:08;;;;;;;13.90;12.50;;;;;;;-2.81;85.80;98436.96;109661;1289;22221;-85
2023/04/04 04:50:44;;;;;;;13.00;11.70;;;;;;;-2.82;86.10;98436.71;109624;1289;22812;-84
2023/04/04 04:53:13;;;;;;;14.10;11.70;;;;;;;-2.80;85.87;98440.86;109559;1289;22082;-86
2023/04/04 04:55:42;;;;;;;14.00;12.80;;;;;;;-2.78;85.92;98437.57;109566;1289;22398;-84
2023/04/04 04:58:10;;;;;;;14.50;13.00;;;;;;;-2.77;85.75;98436.92;109630;1289;22232;-85
2023/04/04 05:00:40;;;;;;;14.00;12.60;;;;;;;-2.79;85.69;98439.98;109776;1289;22221;-84
2023/04/04 05:03:09;;;;;;;13.60;12.20;;;;;;;-2.71;85.93;98442.70;109737;1289;22172;-84
2023/04/04 05:05:46;;;;;;;14.70;12.30;;;;;;;-2.69;85.77;98446.45;109689;1286;22244;-87
2023/04/04 05:08:14;;;;;;;15.10;13.50;;;;;;;-2.70;85.80;98448.73;109681;1289;22963;-87
2023/04/04 05:11:02;;;;;;;14.00;12.60;;;;;;;-2.69;85.71;98448.27;109556;1289;22231;-87
2023/04/04 05:13:33;;;;;;;14.60;13.10;;;;;;;-2.66;85.99;98453.34;109581;1289;22395;-87
2023/04/04 05:16:02;;;;;;;14.80;13.30;;;;;;;-2.66;85.85;98451.36;109678;1289;22197;-84
2023/04/04 05:18:30;;;;;;;15.10;13.20;;;;;;;-2.68;85.61;98452.13;109671;1289;22927;-84
2023/04/04 05:20:59;;;;;;;14.50;12.50;;;;;;;-2.68;85.64;98454.23;109579;1289;22225;-84
2023/04/04 05:23:28;;;;;;;14.60;13.10;;;;;;;-2.65;85.92;98452.88;109564;1289;22353;-84
2023/04/04 05:25:57;;;;;;;15.10;13.50;;;;;;;-2.68;85.74;98457.20;109669;1289;22229;-88
2023/04/04 05:28:27;;;;;;;15.20;13.70;;;;;;;-2.70;85.78;98457.16;109573;1289;22212;-83
2023/04/04 05:30:58;;;;;;;14.80;12.60;;;;;;;-2.64;85.61;98460.20;109509;1289;22890;-84
2023/04/04 05:33:29;;;;;;;15.00;13.30;;;;;;;-2.61;85.71;98457.27;109654;1289;22674;-84
2023/04/04 05:36:06;;;;;;;16.50;14.90;;;;;;;-2.60;85.40;98456.77;109576;1289;22189;-84
2023/04/04 05:38:38;;;;;;;15.80;14.20;;;;;;;-2.60;85.16;98459.20;109306;1289;22120;-85
2023/04/04 05:41:09;;;;;;;14.30;12.70;;;;;;;-2.51;85.15;98458.52;109696;1289;22124;-83
2023/04/04 05:43:37;;;;;;;14.10;12.70;;;;;;;-2.50;84.91;98459.63;109663;1289;22210;-84
2023/04/04 05:46:08;;;;;;;14.90;13.50;;;;;;;-2.47;84.90;98464.21;109645;1289;22229;-83
2023/04/04 05:48:41;;;;;;;14.40;12.80;;;;;;;-2.42;84.77;98465.04;109567;1289;22243;-84
2023/04/04 05:51:09;;;;;;;14.50;12.80;;;;;;;-2.36;84.58;98467.11;109660;1289;22282;-84
2023/04/04 05:53:46;;;;;;;14.10;10.70;;;;;;;-2.37;84.59;98465.41;109663;1289;22415;-85
2023/04/04 05:56:18;;;;;;;13.10;11.80;;;;;;;-2.29;84.55;98465.95;109679;1289;22198;-84
2023/04/04 05:58:46;;;;;;;13.60;12.10;;;;;;;-2.24;84.09;98470.86;109683;1289;22837;-86
2023/04/04 06:01:17;;;;;;;13.20;10.80;;;;;;;-2.18;83.69;98472.02;109662;1289;22981;-85
2023/04/04 06:03:46;;;;;;;11.20;10.00;;;;;;;-2.16;83.24;98474.40;109661;1289;22904;-85
2023/04/04 06:06:20;;;;;;;13.10;11.00;;;;;;;-2.14;82.58;98479.89;109560;1289;22264;-85
2023/04/04 06:08:48;;;;;;;12.40;11.20;;;;;;;-2.18;82.54;98476.67;109664;1289;22172;-84
2023/04/04 06:11:23;;;;;;;12.30;10.80;;;;;;;-2.14;82.80;98479.92;109668;1289;22278;-83
2023/04/04 06:14:00;;;;;;;11.50;10.30;;;;;;;-2.11;82.55;98479.00;109532;1289;22204;-85
2023/04/04 06:16:28;;;;;;;12.70;10.30;;;;;;;-2.02;82.10;98482.48;109552;1289;22984;-84
2023/04/04 06:18:57;;;;;;;13.40;11.50;;;;;;;-2.01;81.81;98483.11;109659;1289;23536;-84
2023/04/04 06:21:25;;;;;;;13.20;11.90;;;;;;;-1.95;81.82;98484.89;109675;1289;22244;-84
2023/04/04 06:23:53;;;;;;;11.80;10.10;;;;;;;-1.86;81.53;98484.48;109554;1289;22258;-85
2023/04/04 06:26:21;;;;;;;12.90;11.30;;;;;;;-1.80;81.36;98483.55;109584;1289;22961;-85
2023/04/04 06:28:50;;;;;;;14.70;11.50;;;;;;;-1.72;80.87;98479.26;109638;1289;22220;-84
2023/04/04 06:31:23;;;;;;;11.40;10.20;;;;;;;-1.71;80.52;98482.64;109567;1289;23023;-85
2023/04/04 06:33:53;;;;;;;12.10;10.30;;;;;;;-1.75;80.11;98478.73;109662;1289;22283;-85
2023/04/04 06:36:23;;;;;;;10.90;9.50;;;;;;;-1.69;80.19;98486.66;109561;1289;22150;-86
2023/04/04 06:38:52;;;;;;;12.00;9.50;;;;;;;-1.67;80.13;98479.94;109558;1289;22145;-86
2023/04/04 06:41:22;;;;;;;10.70;9.70;;;;;;;-1.54;80.22;98473.70;109690;1289;22190;-85
2023/04/04 06:43:52;;;;;;;12.20;11.00;;;;;;;-1.39;79.65;98477.82;109574;1289;22204;-84
2023/04/04 06:46:20;;;;;;;11.20;10.00;;;;;;;-1.24;78.60;98472.20;109565;1289;22722;-84
2023/04/04 06:48:48;;;;;;;11.00;9.60;;;;;;;-1.17;77.90;98473.77;109652;1289;22357;-85
2023/04/04 06:51:17;;;;;;;11.90;9.70;;;;;;;-1.14;77.49;98470.30;109641;1289;22297;-84
2023/04/04 06:53:46;;;;;;;10.40;9.30;;;;;;;-1.10;76.66;98472.73;109566;1289;23045;-84
2023/04/04 06:56:14;;;;;;;14.40;9.90;;;;;;;-1.10;76.49;98468.36;109659;1289;22394;-83
2023/04/04 06:58:42;;;;;;;9.90;8.90;;;;;;;-1.04;76.24;98468.84;109654;1289;22184;-83
2023/04/04 07:01:10;;;;;;;10.00;8.90;;;;;;;-0.95;76.65;98471.64;109640;1289;22339;-84
2023/04/04 07:03:39;;;;;;;12.10;9.40;;;;;;;-0.84;76.18;98469.77;109670;1289;22199;-84
2023/04/04 07:06:07;;;;;;;11.40;10.10;;;;;;;-0.75;76.06;98468.95;109669;1289;23021;-84
2023/04/04 07:08:35;;;;;;;13.10;9.90;;;;;;;-0.72;74.28;98465.96;109661;1289;22199;-83
2023/04/04 07:11:06;;;;;;;11.50;9.90;;;;;;;-0.74;74.79;98464.72;109702;1289;23145;-85
2023/04/04 07:14:00;;;;;;;10.70;9.60;;;;;;;-0.67;74.25;98465.83;109681;1289;22151;-83
2023/04/04 07:16:28;;;;;;;11.60;9.60;;;;;;;-0.62;74.28;98465.46;109649;1289;22232;-85
2023/04/04 07:18:56;;;;;;;11.70;9.80;;;;;;;-0.57;73.80;98462.74;109663;1289;22266;-86
2023/04/04 07:21:24;;;;;;;11.60;9.50;;;;;;;-0.49;73.72;98458.79;109686;1285;22219;-85
2023/04/04 07:23:52;;;;;;;10.70;9.60;;;;;;;-0.40;73.64;98456.69;109684;1289;23080;-85
2023/04/04 07:26:20;;;;;;;10.80;8.60;;;;;;;-0.23;74.52;98457.59;109686;1289;22919;-85
2023/04/04 07:28:48;;;;;;;9.30;8.10;;;;;;;-0.06;73.64;98463.58;109560;1289;22174;-86
2023/04/04 07:31:16;;;;;;;10.60;9.20;;;;;;;-0.04;72.25;98465.34;109672;1289;22241;-85
2023/04/04 07:33:44;;;;;;;12.20;8.50;;;;;;;-0.01;72.17;98465.77;109612;1287;22204;-91
2023/04/04 07:36:13;;;;;;;14.20;8.80;;;;;;;0.08;71.85;98462.80;109807;1289;23081;-92
2023/04/04 07:38:41;;;;;;;8.70;7.60;;;;;;;0.16;71.09;98466.37;109773;1289;22204;-93
2023/04/04 07:41:10;;;;;;;10.70;7.90;;;;;;;0.19;68.56;98468.14;109781;1289;22791;-90
2023/04/04 07:43:38;;;;;;;11.90;8.20;;;;;;;0.12;68.41;98468.03;109741;1289;22198;-92
2023/04/04 07:46:06;;;;;;;9.60;8.00;;;;;;;0.17;68.99;98468.23;109753;1289;22238;-89
2023/04/04 07:48:34;;;;;;;11.60;8.30;;;;;;;0.20;68.41;98467.17;109666;1289;22211;-85
2023/04/04 07:51:06;;;;;;;10.90;8.50;;;;;;;0.21;67.64;98466.45;109571;1279;22211;-87
2023/04/04 07:53:34;;;;;;;8.30;7.50;;;;;;;0.31;67.76;98471.64;109505;1289;22196;-88
2023/04/04 07:56:05;;;;;;;10.00;8.30;;;;;;;0.40;66.85;98468.88;109676;1289;22441;-87
2023/04/04 07:58:35;;;;;;;8.80;7.80;;;;;;;0.39;65.58;98471.77;109673;1289;22102;-88
2023/04/04 08:01:03;;;;;;;8.80;7.90;;;;;;;0.22;66.34;98465.00;109587;1289;22173;-89
2023/04/04 08:03:31;;;;;;;9.30;8.00;;;;;;;0.23;67.75;98464.38;109665;1289;22490;-88
2023/04/04 08:05:59;;;;;;;9.90;7.00;;;;;;;0.45;67.15;98461.52;109684;1285;22261;-88
2023/04/04 08:08:28;;;;;;;8.90;6.70;;;;;;;0.68;65.72;98468.83;109703;1289;22220;-91
2023/04/04 08:10:56;;;;;;;9.50;7.80;;;;;;;0.70;64.58;98465.70;109754;1289;22212;-90
2023/04/04 08:13:24;;;;;;;9.20;7.20;;;;;;;0.52;62.49;98466.91;109686;1289;22927;-88
2023/04/04 08:15:52;;;;;;;9.10;8.00;;;;;;;0.38;62.67;98463.14;109693;1289;23091;-90
2023/04/04 08:18:20;;;;;;;9.30;7.40;;;;;;;0.40;62.86;98462.23;109704;1289;22332;-90
2023/04/04 08:20:49;;;;;;;8.20;6.30;;;;;;;0.54;62.64;98460.83;109529;1289;22212;-91
2023/04/04 08:23:17;;;;;;;8.50;6.90;;;;;;;0.60;62.12;98460.71;109784;1289;22927;-88
2023/04/04 08:25:45;;;;;;;9.00;7.50;;;;;;;0.65;62.79;98462.95;109807;1289;22243;-90
2023/04/04 08:28:14;;;;;;;9.20;7.20;;;;;;;0.80;63.83;98459.73;109762;1289;22414;-90
2023/04/04 08:30:42;;;;;;;7.70;6.30;;;;;;;0.90;62.65;98454.31;109838;1289;22243;-91
2023/04/04 08:33:10;;;;;;;7.80;6.30;;;;;;;0.87;60.47;98461.25;109727;1289;22235;-91
2023/04/04 08:35:38;;;;;;;9.30;7.10;;;;;;;0.89;62.00;98457.36;109594;1289;22166;-90
2023/04/04 08:38:07;;;;;;;9.30;5.90;;;;;;;1.01;59.44;98454.16;109754;1289;22931;-88
2023/04/04 08:40:35;;;;;;;8.20;6.30;;;;;;;1.05;59.71;98453.10;109675;1289;22198;-89
2023/04/04 08:43:04;;;;;;;7.70;6.60;;;;;;;1.13;61.42;98451.70;109676;1289;23318;-88
2023/04/04 08:45:33;;;;;;;11.10;6.40;;;;;;;1.27;61.01;98448.45;109684;1289;22319;-89
2023/04/04 08:48:03;;;;;;;7.90;6.40;;;;;;;1.33;58.37;98449.84;109688;1289;22310;-85
2023/04/04 08:50:36;;;;;;;8.00;5.70;;;;;;;1.43;57.53;98443.61;109833;1289;22222;-88
2023/04/04 08:53:07;;;;;;;6.30;5.30;;;;;;;1.58;56.09;98441.92;109864;1289;22174;-86
2023/04/04 08:55:36;;;;;;;9.00;6.10;;;;;;;1.77;55.66;98441.68;109860;1289;22286;-87
2023/04/04 08:58:05;;;;;;;7.90;6.00;;;;;;;1.88;53.27;98442.70;109838;1289;22193;-87
2023/04/04 09:00:33;;;;;;;8.20;4.80;;;;;;;1.67;52.82;98439.86;109832;1285;22237;-87
2023/04/04 09:03:13;;;;;;;9.00;5.10;;;;;;;1.60;52.73;98440.46;109860;1289;22121;-87
2023/04/04 09:05:43;;;;;;;6.40;4.90;;;;;;;1.61;52.38;98434.92;109762;1289;22128;-87
2023/04/04 09:08:12;;;;;;;6.80;5.30;;;;;;;1.54;50.78;98440.10;109839;1289;22127;-89
2023/04/04 09:10:42;;;;;;;6.40;5.80;;;;;;;1.36;52.03;98435.66;109856;1289;22183;-89
2023/04/04 09:13:11;;;;;;;6.70;5.30;;;;;;;1.28;51.56;98435.08;109754;1289;22474;-87
2023/04/04 09:15:49;;;;;;;5.30;4.70;;;;;;;1.23;51.06;98437.92;109544;1289;22225;-87
2023/04/04 09:18:18;;;;;;;5.90;5.20;;;;;;;1.40;51.91;98429.72;109661;1289;22950;-87
2023/04/04 09:20:46;;;;;;;5.90;5.00;;;;;;;1.68;52.82;98432.91;109661;1289;23159;-88
2023/04/04 09:23:17;;;;;;;7.50;6.30;;;;;;;1.76;50.94;98433.71;109646;1289;22557;-86
2023/04/04 09:25:47;;;;;;;8.40;6.10;;;;;;;1.71;52.61;98430.65;109678;1289;22209;-87
2023/04/04 09:28:32;;;;;;;9.00;5.70;;;;;;;1.85;53.47;98429.94;109651;1289;22215;-89
2023/04/04 09:31:03;;;;;;;8.40;5.60;;;;;;;1.93;52.43;98436.92;109571;1289;22277;-89
2023/04/04 09:33:33;;;;;;;7.80;7.40;;;;;;;1.85;50.86;98438.37;109647;1289;22182;-89
2023/04/04 09:36:05;;;;;;;9.90;6.30;;;;;;;1.66;51.15;98438.98;109663;1282;22200;-85
2023/04/04 09:38:37;;;;;;;8.20;6.30;;;;;;;1.61;51.36;98440.77;109482;1277;23099;-86
2023/04/04 09:41:08;;;;;;;7.70;6.30;;;;;;;1.58;51.56;98439.48;109581;1289;22274;-87
2023/04/04 09:43:38;;;;;;;11.50;8.30;;;;;;;1.61;52.58;98439.02;109664;1277;22266;-85
2023/04/04 09:46:06;;;;;;;9.30;7.20;;;;;;;1.64;53.09;98438.41;109584;1289;22273;-89
2023/04/04 09:48:36;;;;;;;8.30;6.30;;;;;;;1.79;53.46;98443.98;109569;1289;22406;-89
2023/04/04 09:51:11;;;;;;;8.30;6.20;;;;;;;1.95;50.36;98444.05;109683;1289;22210;-87
2023/04/04 09:53:40;;;;;;;6.90;5.90;;;;;;;1.87;49.42;98447.42;109724;1289;22200;-92
2023/04/04 09:56:10;;;;;;;7.10;5.00;;;;;;;1.82;48.84;98444.22;109813;1289;22159;-93
2023/04/04 09:58:39;;;;;;;7.60;6.10;;;;;;;1.80;49.53;98440.81;109705;1289;22357;-93
2023/04/04 10:01:16;;;;;;;7.10;5.30;;;;;;;1.96;52.41;98436.79;109803;1289;22199;-92
2023/04/04 10:03:52;;;;;;;6.80;5.90;;;;;;;2.20;51.03;98438.36;109681;1289;22232;-88
2023/04/04 10:06:21;;;;;;;6.50;5.80;;;;;;;2.28;49.16;98441.14;109671;1289;22106;-87
2023/04/04 10:08:49;;;;;;;6.60;5.30;;;;;;;2.27;49.34;98436.39;109728;1289;22208;-87
2023/04/04 10:11:32;;;;;;;7.10;5.80;;;;;;;2.40;50.09;98432.80;109713;1289;22307;-88
2023/04/04 10:14:02;;;;;;;7.60;5.60;;;;;;;2.72;50.08;98425.96;109682;1289;22378;-87
2023/04/04 10:16:33;;;;;;;7.00;5.20;;;;;;;3.00;49.27;98420.52;109604;1289;22771;-85
2023/04/04 10:19:04;;;;;;;6.60;5.50;;;;;;;3.12;46.44;98419.30;109618;1289;22208;-84
2023/04/04 10:21:33;;;;;;;9.20;5.70;;;;;;;2.90;45.63;98414.94;109664;1289;22305;-91
2023/04/04 10:24:07;;;;;;;5.40;4.90;;;;;;;2.72;46.80;98417.79;109626;1289;22969;-84
2023/04/04 10:26:36;;;;;;;8.40;5.00;;;;;;;2.59;47.27;98416.17;109659;1289;22103;-86
2023/04/04 10:29:04;;;;;;;6.70;6.00;;;;;;;2.70;49.67;98415.50;109654;1289;23088;-84
2023/04/04 10:31:40;;;;;;;6.50;4.70;;;;;;;3.16;49.93;98412.50;109675;1289;22162;-84
2023/04/04 10:34:14;;;;;;;7.40;5.90;;;;;;;3.43;48.74;98399.98;109657;1289;22210;-83
2023/04/04 10:36:51;;;;;;;5.50;4.80;;;;;;;3.67;49.02;98397.85;109613;1289;22740;-85
2023/04/04 10:39:26;;;;;;;6.50;5.10;;;;;;;3.75;47.69;98399.46;109576;1287;22414;-83
2023/04/04 10:41:55;;;;;;;6.60;4.90;;;;;;;3.69;47.80;98403.85;109633;1289;22336;-85
2023/04/04 10:44:35;;;;;;;6.40;5.20;;;;;;;3.69;47.76;98405.39;109469;1289;22125;-87
2023/04/04 10:47:24;;;;;;;7.40;5.70;;;;;;;3.69;49.12;98405.87;109644;1289;22363;-85
2023/04/04 10:49:54;;;;;;;7.60;6.10;;;;;;;4.05;49.63;98393.16;109637;1289;22288;-85
2023/04/04 10:52:26;;;;;;;8.30;5.90;;;;;;;4.39;48.13;98394.23;109637;1289;22940;-85
2023/04/04 10:54:57;;;;;;;6.70;4.90;;;;;;;4.35;46.59;98399.29;109621;1289;22430;-84
2023/04/04 10:57:27;;;;;;;6.60;5.20;;;;;;;4.02;44.88;98398.23;109582;1289;22279;-87
2023/04/04 11:00:09;;;;;;;6.60;5.00;;;;;;;3.68;44.44;98395.15;109649;1289;22191;-86
2023/04/04 11:02:46;;;;;;;5.60;5.10;;;;;;;3.29;45.71;98394.00;109601;1289;22172;-89
2023/04/04 11:05:21;;;;;;;7.40;5.70;;;;;;;3.26;46.46;98394.75;109622;1289;22342;-85
2023/04/04 11:08:12;;;;;;;6.20;5.20;;;;;;;3.37;45.98;98394.73;109657;1289;23430;-87
2023/04/04 11:10:48;;;;;;;7.80;6.10;;;;;;;3.21;46.33;98391.52;109660;1289;22208;-89
2023/04/04 11:13:28;;;;;;;7.00;5.90;;;;;;;3.11;46.12;98391.40;109687;1289;22396;-90
2023/04/04 11:16:16;;;;;;;6.40;4.80;;;;;;;2.88;45.25;98394.09;109644;1289;23453;-87
2023/04/04 11:18:45;;;;;;;6.90;5.40;;;;;;;2.58;45.77;98396.95;109664;1289;22196;-86
2023/04/04 11:21:18;;;;;;;10.10;9.00;;;;;;;2.58;46.12;98391.02;109665;1289;21939;-87
2023/04/04 11:23:47;;;;;;;8.80;7.10;;;;;;;2.62;46.96;98391.55;109744;1289;22197;-92
2023/04/04 11:26:34;;;;;;;6.70;5.70;;;;;;;2.81;47.38;98391.23;109732;1289;22171;-92
2023/04/04 11:29:03;;;;;;;6.60;5.60;;;;;;;3.01;48.11;98386.99;109618;1289;22750;-90
2023/04/04 11:31:39;;;;;;;6.70;5.30;;;;;;;3.26;46.91;98386.48;109635;1289;22204;-87